sensor_id;sensor_type;location;lat;lon;timestamp;pressure;altitude;pressure_sealevel;temperature;humidity
8653;BME280;4364;52.426;9.424;2023-03-16T00:01:05;101546.47;;;-0.35;80.54
8653;BME280;4364;52.426;9.424;2023-03-16T00:03:31;101551.19;;;-0.38;80.73
8653;BME280;4364;52.426;9.424;2023-03-16T00:05:59;101550.91;;;-0.43;79.93
8653;BME280;4364;52.426;9.424;2023-03-16T00:08:26;101545.91;;;-0.46;79.89
8653;BME280;4364;52.426;9.424;2023-03-16T00:10:53;101543.59;;;-0.49;79.91
8653;BME280;4364;52.426;9.424;2023-03-16T00:13:22;101541.50;;;-0.53;80.06
8653;BME280;4364;52.426;9.424;2023-03-16T00:15:56;101539.56;;;-0.60;79.86
8653;BME280;4364;52.426;9.424;2023-03-16T00:18:24;101549.59;;;-0.62;79.82
8653;BME280;4364;52.426;9.424;2023-03-16T00:20:58;101550.13;;;-0.66;79.85
8653;BME280;4364;52.426;9.424;2023-03-16T00:23:27;101549.84;;;-0.71;79.73
8653;BME280;4364;52.426;9.424;2023-03-16T00:25:55;101552.88;;;-0.75;79.72
8653;BME280;4364;52.426;9.424;2023-03-16T00:28:22;101550.56;;;-0.78;79.78
8653;BME280;4364;52.426;9.424;2023-03-16T00:30:49;101548.06;;;-0.79;80.44
8653;BME280;4364;52.426;9.424;2023-03-16T00:33:15;101545.69;;;-0.74;80.22
8653;BME280;4364;52.426;9.424;2023-03-16T00:35:46;101548.53;;;-0.76;80.18
8653;BME280;4364;52.426;9.424;2023-03-16T00:38:16;101550.31;;;-0.68;80.18
8653;BME280;4364;52.426;9.424;2023-03-16T00:40:44;101547.47;;;-0.66;80.31
8653;BME280;4364;52.426;9.424;2023-03-16T00:43:11;101544.97;;;-0.68;79.99
8653;BME280;4364;52.426;9.424;2023-03-16T00:45:37;101543.13;;;-0.67;80.14
8653;BME280;4364;52.426;9.424;2023-03-16T00:48:04;101547.28;;;-0.65;80.03
8653;BME280;4364;52.426;9.424;2023-03-16T00:50:31;101543.31;;;-0.69;79.77
8653;BME280;4364;52.426;9.424;2023-03-16T00:52:57;101541.84;;;-0.71;80.22
8653;BME280;4364;52.426;9.424;2023-03-16T00:55:24;101538.13;;;-0.70;79.90
8653;BME280;4364;52.426;9.424;2023-03-16T00:57:50;101544.41;;;-0.78;80.15
8653;BME280;4364;52.426;9.424;2023-03-16T01:00:17;101546.78;;;-0.83;79.86
8653;BME280;4364;52.426;9.424;2023-03-16T01:02:46;101536.63;;;-0.88;80.04
8653;BME280;4364;52.426;9.424;2023-03-16T01:05:14;101536.63;;;-0.88;80.05
8653;BME280;4364;52.426;9.424;2023-03-16T01:07:41;101541.34;;;-0.90;80.01
8653;BME280;4364;52.426;9.424;2023-03-16T01:10:08;101541.81;;;-0.86;80.18
8653;BME280;4364;52.426;9.424;2023-03-16T01:12:35;101529.38;;;-0.79;79.79
8653;BME280;4364;52.426;9.424;2023-03-16T01:15:03;101528.03;;;-0.75;80.16
8653;BME280;4364;52.426;9.424;2023-03-16T01:17:30;101532.72;;;-0.62;79.81
8653;BME280;4364;52.426;9.424;2023-03-16T01:20:01;101531.47;;;-0.51;79.57
8653;BME280;4364;52.426;9.424;2023-03-16T01:22:33;101526.84;;;-0.43;79.07
8653;BME280;4364;52.426;9.424;2023-03-16T01:25:00;101512.94;;;-0.38;78.12
8653;BME280;4364;52.426;9.424;2023-03-16T01:27:27;101511.72;;;-0.35;78.17
8653;BME280;4364;52.426;9.424;2023-03-16T01:29:54;101510.19;;;-0.30;78.34
8653;BME280;4364;52.426;9.424;2023-03-16T01:32:20;101512.75;;;-0.22;77.91
8653;BME280;4364;52.426;9.424;2023-03-16T01:34:47;101508.03;;;-0.20;77.66
8653;BME280;4364;52.426;9.424;2023-03-16T01:37:14;101506.81;;;-0.17;77.78
8653;BME280;4364;52.426;9.424;2023-03-16T01:40:01;101507.09;;;-0.12;77.90
8653;BME280;4364;52.426;9.424;2023-03-16T01:42:44;101513.75;;;-0.23;77.19
8653;BME280;4364;52.426;9.424;2023-03-16T01:48:15;101512.75;;;-0.36;77.31
8653;BME280;4364;52.426;9.424;2023-03-16T01:50:42;101518.75;;;-0.34;77.48
8653;BME280;4364;52.426;9.424;2023-03-16T01:53:09;101515.34;;;-0.28;77.12
8653;BME280;4364;52.426;9.424;2023-03-16T01:55:37;101514.47;;;-0.14;77.07
8653;BME280;4364;52.426;9.424;2023-03-16T01:58:04;101516.41;;;-0.08;76.74
8653;BME280;4364;52.426;9.424;2023-03-16T02:00:31;101520.56;;;-0.05;76.38
8653;BME280;4364;52.426;9.424;2023-03-16T02:03:12;101512.34;;;-0.04;76.41
8653;BME280;4364;52.426;9.424;2023-03-16T02:05:57;101512.34;;;-0.04;76.33
8653;BME280;4364;52.426;9.424;2023-03-16T02:08:26;101509.41;;;-0.09;75.91
8653;BME280;4364;52.426;9.424;2023-03-16T02:10:54;101511.00;;;-0.14;76.06
8653;BME280;4364;52.426;9.424;2023-03-16T02:13:28;101509.22;;;-0.22;76.14
8653;BME280;4364;52.426;9.424;2023-03-16T02:15:59;101496.81;;;-0.30;75.72
8653;BME280;4364;52.426;9.424;2023-03-16T02:18:26;101499.50;;;-0.30;75.64
8653;BME280;4364;52.426;9.424;2023-03-16T02:21:05;101492.81;;;-0.19;75.75
8653;BME280;4364;52.426;9.424;2023-03-16T02:23:34;101505.28;;;-0.11;75.22
8653;BME280;4364;52.426;9.424;2023-03-16T02:29:13;101480.19;;;0.26;72.81
8653;BME280;4364;52.426;9.424;2023-03-16T02:31:45;101481.63;;;0.44;72.05
8653;BME280;4364;52.426;9.424;2023-03-16T02:34:12;101480.41;;;0.46;70.64
8653;BME280;4364;52.426;9.424;2023-03-16T02:36:42;101484.28;;;0.44;70.87
8653;BME280;4364;52.426;9.424;2023-03-16T02:39:10;101474.41;;;0.44;71.02
8653;BME280;4364;52.426;9.424;2023-03-16T02:41:44;101477.28;;;0.43;70.92
8653;BME280;4364;52.426;9.424;2023-03-16T02:44:15;101467.38;;;0.43;71.16
8653;BME280;4364;52.426;9.424;2023-03-16T02:46:43;101467.38;;;0.43;71.31
8653;BME280;4364;52.426;9.424;2023-03-16T02:49:37;101474.78;;;0.41;70.71
8653;BME280;4364;52.426;9.424;2023-03-16T02:52:07;101453.38;;;0.41;70.14
8653;BME280;4364;52.426;9.424;2023-03-16T02:54:34;101456.44;;;0.38;70.28
8653;BME280;4364;52.426;9.424;2023-03-16T02:57:00;101453.94;;;0.36;70.73
8653;BME280;4364;52.426;9.424;2023-03-16T02:59:28;101452.25;;;0.29;70.46
8653;BME280;4364;52.426;9.424;2023-03-16T03:01:55;101456.22;;;0.18;70.99
8653;BME280;4364;52.426;9.424;2023-03-16T03:04:21;101451.78;;;0.04;71.34
8653;BME280;4364;52.426;9.424;2023-03-16T03:06:50;101455.09;;;-0.09;71.55
8653;BME280;4364;52.426;9.424;2023-03-16T03:09:17;101453.00;;;-0.14;72.24
8653;BME280;4364;52.426;9.424;2023-03-16T03:11:45;101447.56;;;-0.21;71.94
8653;BME280;4364;52.426;9.424;2023-03-16T03:14:12;101447.28;;;-0.26;72.23
8653;BME280;4364;52.426;9.424;2023-03-16T03:16:43;101456.13;;;-0.25;73.09
8653;BME280;4364;52.426;9.424;2023-03-16T03:19:12;101440.50;;;-0.28;73.38
8653;BME280;4364;52.426;9.424;2023-03-16T03:21:40;101450.44;;;-0.37;73.52
8653;BME280;4364;52.426;9.424;2023-03-16T03:24:08;101449.09;;;-0.48;73.78
8653;BME280;4364;52.426;9.424;2023-03-16T03:26:35;101455.78;;;-0.52;74.36
8653;BME280;4364;52.426;9.424;2023-03-16T03:29:05;101449.16;;;-0.56;74.44
8653;BME280;4364;52.426;9.424;2023-03-16T03:31:33;101455.16;;;-0.54;75.30
8653;BME280;4364;52.426;9.424;2023-03-16T03:34:00;101458.19;;;-0.57;75.28
8653;BME280;4364;52.426;9.424;2023-03-16T03:36:34;101448.09;;;-0.62;75.19
8653;BME280;4364;52.426;9.424;2023-03-16T03:39:01;101454.16;;;-0.68;75.76
8653;BME280;4364;52.426;9.424;2023-03-16T03:41:32;101455.34;;;-0.56;76.02
8653;BME280;4364;52.426;9.424;2023-03-16T03:44:02;101457.38;;;-0.72;76.16
8653;BME280;4364;52.426;9.424;2023-03-16T03:46:29;101454.25;;;-0.76;77.14
8653;BME280;4364;52.426;9.424;2023-03-16T03:48:56;101458.38;;;-0.88;76.96
8653;BME280;4364;52.426;9.424;2023-03-16T03:51:31;101456.78;;;-0.98;77.50
8653;BME280;4364;52.426;9.424;2023-03-16T03:54:04;101459.34;;;-1.04;78.47
8653;BME280;4364;52.426;9.424;2023-03-16T03:56:43;101467.38;;;-1.04;78.33
8653;BME280;4364;52.426;9.424;2023-03-16T03:59:13;101461.00;;;-1.18;78.56
8653;BME280;4364;52.426;9.424;2023-03-16T04:01:58;101460.25;;;-1.12;78.84
8653;BME280;4364;52.426;9.424;2023-03-16T04:04:35;101456.47;;;-1.18;78.96
8653;BME280;4364;52.426;9.424;2023-03-16T04:07:02;101458.16;;;-1.17;79.07
8653;BME280;4364;52.426;9.424;2023-03-16T04:09:29;101453.91;;;-1.11;79.04
8653;BME280;4364;52.426;9.424;2023-03-16T04:12:01;101454.81;;;-1.19;79.39
8653;BME280;4364;52.426;9.424;2023-03-16T04:14:28;101456.53;;;-1.26;79.72
8653;BME280;4364;52.426;9.424;2023-03-16T04:16:55;101457.69;;;-1.20;79.69
8653;BME280;4364;52.426;9.424;2023-03-16T04:19:23;101445.50;;;-1.23;79.93
8653;BME280;4364;52.426;9.424;2023-03-16T04:21:51;101447.00;;;-1.20;79.63
8653;BME280;4364;52.426;9.424;2023-03-16T04:24:18;101438.25;;;-1.14;79.48
8653;BME280;4364;52.426;9.424;2023-03-16T04:26:45;101443.44;;;-0.98;78.67
8653;BME280;4364;52.426;9.424;2023-03-16T04:29:12;101447.09;;;-0.99;78.78
8653;BME280;4364;52.426;9.424;2023-03-16T04:31:40;101437.03;;;-0.88;78.20
8653;BME280;4364;52.426;9.424;2023-03-16T04:34:08;101441.88;;;-0.92;78.83
8653;BME280;4364;52.426;9.424;2023-03-16T04:36:35;101433.41;;;-0.96;79.03
8653;BME280;4364;52.426;9.424;2023-03-16T04:39:02;101435.63;;;-0.84;78.73
8653;BME280;4364;52.426;9.424;2023-03-16T04:41:30;101440.22;;;-0.93;78.74
8653;BME280;4364;52.426;9.424;2023-03-16T04:44:05;101442.09;;;-0.94;79.22
8653;BME280;4364;52.426;9.424;2023-03-16T04:46:33;101439.78;;;-0.97;79.00
8653;BME280;4364;52.426;9.424;2023-03-16T04:49:04;101436.44;;;-0.99;79.11
8653;BME280;4364;52.426;9.424;2023-03-16T04:51:36;101435.59;;;-0.99;79.41
8653;BME280;4364;52.426;9.424;2023-03-16T04:54:08;101436.75;;;-0.94;79.61
8653;BME280;4364;52.426;9.424;2023-03-16T04:56:38;101448.13;;;-1.00;79.67
8653;BME280;4364;52.426;9.424;2023-03-16T04:59:15;101455.41;;;-1.08;80.06
8653;BME280;4364;52.426;9.424;2023-03-16T05:01:50;101457.97;;;-1.15;80.54
8653;BME280;4364;52.426;9.424;2023-03-16T05:04:17;101448.88;;;-1.29;80.63
8653;BME280;4364;52.426;9.424;2023-03-16T05:06:45;101446.41;;;-1.31;80.72
8653;BME280;4364;52.426;9.424;2023-03-16T05:09:12;101444.94;;;-1.33;81.37
8653;BME280;4364;52.426;9.424;2023-03-16T05:11:39;101447.59;;;-1.33;81.13
8653;BME280;4364;52.426;9.424;2023-03-16T05:14:09;101450.91;;;-1.31;81.36
8653;BME280;4364;52.426;9.424;2023-03-16T05:16:51;101452.53;;;-1.22;81.21
8653;BME280;4364;52.426;9.424;2023-03-16T05:19:18;101449.97;;;-1.15;81.09
8653;BME280;4364;52.426;9.424;2023-03-16T05:21:45;101444.06;;;-1.10;81.13
8653;BME280;4364;52.426;9.424;2023-03-16T05:24:11;101449.38;;;-1.10;80.81
8653;BME280;4364;52.426;9.424;2023-03-16T05:26:38;101441.38;;;-1.10;81.34
8653;BME280;4364;52.426;9.424;2023-03-16T05:29:09;101432.69;;;-0.89;80.64
8653;BME280;4364;52.426;9.424;2023-03-16T05:31:35;101425.59;;;-0.82;80.60
8653;BME280;4364;52.426;9.424;2023-03-16T05:34:09;101424.03;;;-0.91;81.01
8653;BME280;4364;52.426;9.424;2023-03-16T05:36:35;101412.31;;;-0.76;80.84
8653;BME280;4364;52.426;9.424;2023-03-16T05:39:07;101413.44;;;-0.70;80.85
8653;BME280;4364;52.426;9.424;2023-03-16T05:41:37;101414.63;;;-0.72;80.75
8653;BME280;4364;52.426;9.424;2023-03-16T05:44:16;101408.47;;;-0.73;80.84
8653;BME280;4364;52.426;9.424;2023-03-16T05:46:56;101409.00;;;-0.78;80.93
8653;BME280;4364;52.426;9.424;2023-03-16T05:49:23;101402.50;;;-0.75;81.68
8653;BME280;4364;52.426;9.424;2023-03-16T05:51:50;101400.81;;;-0.76;82.04
8653;BME280;4364;52.426;9.424;2023-03-16T05:54:16;101409.91;;;-0.70;81.81
8653;BME280;4364;52.426;9.424;2023-03-16T05:56:44;101410.28;;;-0.59;82.39
8653;BME280;4364;52.426;9.424;2023-03-16T05:59:11;101409.63;;;-0.46;81.79
8653;BME280;4364;52.426;9.424;2023-03-16T06:01:38;101411.56;;;-0.40;81.80
8653;BME280;4364;52.426;9.424;2023-03-16T06:04:05;101407.28;;;-0.19;81.16
8653;BME280;4364;52.426;9.424;2023-03-16T06:06:37;101406.59;;;-0.06;81.24
8653;BME280;4364;52.426;9.424;2023-03-16T06:09:10;101403.63;;;0.04;80.79
8653;BME280;4364;52.426;9.424;2023-03-16T06:11:37;101399.22;;;0.17;80.24
8653;BME280;4364;52.426;9.424;2023-03-16T06:14:03;101402.41;;;0.28;79.32
8653;BME280;4364;52.426;9.424;2023-03-16T06:16:30;101400.88;;;0.40;78.86
8653;BME280;4364;52.426;9.424;2023-03-16T06:18:58;101402.47;;;0.56;78.20
8653;BME280;4364;52.426;9.424;2023-03-16T06:21:27;101394.97;;;0.73;76.44
8653;BME280;4364;52.426;9.424;2023-03-16T06:23:59;101394.63;;;0.83;75.47
8653;BME280;4364;52.426;9.424;2023-03-16T06:26:26;101395.06;;;0.86;75.76
8653;BME280;4364;52.426;9.424;2023-03-16T06:28:53;101398.91;;;1.05;74.87
8653;BME280;4364;52.426;9.424;2023-03-16T06:31:20;101408.03;;;1.18;73.75
8653;BME280;4364;52.426;9.424;2023-03-16T06:33:47;101410.53;;;1.19;73.56
8653;BME280;4364;52.426;9.424;2023-03-16T06:36:14;101419.78;;;1.17;73.83
8653;BME280;4364;52.426;9.424;2023-03-16T06:38:45;101419.72;;;1.10;74.28
8653;BME280;4364;52.426;9.424;2023-03-16T06:41:20;101414.63;;;1.15;73.84
8653;BME280;4364;52.426;9.424;2023-03-16T06:43:46;101417.94;;;1.17;74.35
8653;BME280;4364;52.426;9.424;2023-03-16T06:46:13;101416.47;;;1.15;74.50
8653;BME280;4364;52.426;9.424;2023-03-16T06:48:40;101424.94;;;1.18;74.62
8653;BME280;4364;52.426;9.424;2023-03-16T06:51:07;101418.75;;;1.18;74.80
8653;BME280;4364;52.426;9.424;2023-03-16T06:53:35;101418.81;;;1.24;75.21
8653;BME280;4364;52.426;9.424;2023-03-16T06:56:02;101416.34;;;1.29;74.91
8653;BME280;4364;52.426;9.424;2023-03-16T06:58:32;101417.84;;;1.32;74.84
8653;BME280;4364;52.426;9.424;2023-03-16T07:01:01;101413.78;;;1.50;74.68
8653;BME280;4364;52.426;9.424;2023-03-16T07:03:30;101415.09;;;1.74;73.72
8653;BME280;4364;52.426;9.424;2023-03-16T07:06:03;101416.63;;;1.90;71.98
8653;BME280;4364;52.426;9.424;2023-03-16T07:08:31;101419.53;;;1.95;71.68
8653;BME280;4364;52.426;9.424;2023-03-16T07:10:57;101430.25;;;1.95;71.74
8653;BME280;4364;52.426;9.424;2023-03-16T07:13:24;101435.59;;;1.88;72.26
8653;BME280;4364;52.426;9.424;2023-03-16T07:15:51;101431.72;;;1.97;71.92
8653;BME280;4364;52.426;9.424;2023-03-16T07:18:19;101437.34;;;2.16;71.06
8653;BME280;4364;52.426;9.424;2023-03-16T07:20:46;101436.50;;;2.15;71.32
8653;BME280;4364;52.426;9.424;2023-03-16T07:23:13;101434.03;;;2.34;70.65
8653;BME280;4364;52.426;9.424;2023-03-16T07:25:41;101448.94;;;2.36;70.46
8653;BME280;4364;52.426;9.424;2023-03-16T07:28:10;101450.41;;;2.39;70.82
8653;BME280;4364;52.426;9.424;2023-03-16T07:30:40;101449.75;;;2.44;71.23
8653;BME280;4364;52.426;9.424;2023-03-16T07:33:27;101448.56;;;2.59;70.64
8653;BME280;4364;52.426;9.424;2023-03-16T07:35:53;101461.38;;;2.64;70.22
8653;BME280;4364;52.426;9.424;2023-03-16T07:38:20;101466.28;;;2.60;71.09
8653;BME280;4364;52.426;9.424;2023-03-16T07:40:48;101455.16;;;2.70;70.68
8653;BME280;4364;52.426;9.424;2023-03-16T07:43:19;101467.56;;;2.71;69.07
8653;BME280;4364;52.426;9.424;2023-03-16T07:45:49;101458.91;;;2.89;67.08
8653;BME280;4364;52.426;9.424;2023-03-16T07:48:18;101466.09;;;3.02;66.72
8653;BME280;4364;52.426;9.424;2023-03-16T07:50:52;101461.56;;;3.03;67.47
8653;BME280;4364;52.426;9.424;2023-03-16T07:53:20;101466.94;;;3.03;67.64
8653;BME280;4364;52.426;9.424;2023-03-16T07:55:51;101464.88;;;3.05;68.06
8653;BME280;4364;52.426;9.424;2023-03-16T07:58:18;101465.88;;;3.17;66.01
8653;BME280;4364;52.426;9.424;2023-03-16T08:00:46;101457.19;;;3.28;65.19
8653;BME280;4364;52.426;9.424;2023-03-16T08:03:13;101465.66;;;3.32;64.20
8653;BME280;4364;52.426;9.424;2023-03-16T08:05:40;101459.63;;;3.50;63.50
8653;BME280;4364;52.426;9.424;2023-03-16T08:08:12;101464.16;;;3.63;63.11
8653;BME280;4364;52.426;9.424;2023-03-16T08:10:39;101469.16;;;3.52;65.66
8653;BME280;4364;52.426;9.424;2023-03-16T08:13:13;101471.63;;;3.47;66.28
8653;BME280;4364;52.426;9.424;2023-03-16T08:15:45;101478.47;;;3.43;67.07
8653;BME280;4364;52.426;9.424;2023-03-16T08:18:24;101474.25;;;3.61;66.54
8653;BME280;4364;52.426;9.424;2023-03-16T08:20:52;101473.25;;;3.62;66.37
8653;BME280;4364;52.426;9.424;2023-03-16T08:23:18;101467.28;;;3.53;66.86
8653;BME280;4364;52.426;9.424;2023-03-16T08:25:45;101478.78;;;3.74;64.49
8653;BME280;4364;52.426;9.424;2023-03-16T08:28:15;101469.66;;;3.81;63.88
8653;BME280;4364;52.426;9.424;2023-03-16T08:30:46;101470.47;;;3.82;64.20
8653;BME280;4364;52.426;9.424;2023-03-16T08:33:52;101467.97;;;3.87;64.48
8653;BME280;4364;52.426;9.424;2023-03-16T08:36:23;101455.72;;;3.98;63.44
8653;BME280;4364;52.426;9.424;2023-03-16T08:38:52;101456.31;;;4.06;62.54
8653;BME280;4364;52.426;9.424;2023-03-16T08:41:37;101452.97;;;4.11;62.68
8653;BME280;4364;52.426;9.424;2023-03-16T08:44:12;101447.91;;;4.28;61.94
8653;BME280;4364;52.426;9.424;2023-03-16T08:46:40;101450.59;;;4.28;60.52
8653;BME280;4364;52.426;9.424;2023-03-16T08:49:07;101453.63;;;4.38;59.27
8653;BME280;4364;52.426;9.424;2023-03-16T08:51:34;101455.84;;;4.48;58.26
8653;BME280;4364;52.426;9.424;2023-03-16T08:54:01;101455.97;;;4.60;59.49
8653;BME280;4364;52.426;9.424;2023-03-16T08:56:27;101453.94;;;4.55;60.63
8653;BME280;4364;52.426;9.424;2023-03-16T08:58:55;101460.31;;;4.61;61.31
8653;BME280;4364;52.426;9.424;2023-03-16T09:01:22;101452.31;;;4.79;60.09
8653;BME280;4364;52.426;9.424;2023-03-16T09:03:50;101447.34;;;5.01;57.44
8653;BME280;4364;52.426;9.424;2023-03-16T09:06:17;101440.38;;;5.12;57.13
8653;BME280;4364;52.426;9.424;2023-03-16T09:08:45;101443.19;;;5.24;54.46
8653;BME280;4364;52.426;9.424;2023-03-16T09:11:15;101441.97;;;5.20;55.11
8653;BME280;4364;52.426;9.424;2023-03-16T09:13:42;101440.13;;;5.39;54.42
8653;BME280;4364;52.426;9.424;2023-03-16T09:16:11;101433.03;;;5.45;54.41
8653;BME280;4364;52.426;9.424;2023-03-16T09:18:38;101430.06;;;5.46;53.13
8653;BME280;4364;52.426;9.424;2023-03-16T09:21:07;101429.19;;;5.52;52.95
8653;BME280;4364;52.426;9.424;2023-03-16T09:23:34;101429.63;;;5.49;53.37
8653;BME280;4364;52.426;9.424;2023-03-16T09:26:05;101421.75;;;5.48;54.46
8653;BME280;4364;52.426;9.424;2023-03-16T09:28:34;101425.00;;;5.56;54.41
8653;BME280;4364;52.426;9.424;2023-03-16T09:31:01;101416.50;;;5.53;54.98
8653;BME280;4364;52.426;9.424;2023-03-16T09:33:29;101416.06;;;5.56;54.46
8653;BME280;4364;52.426;9.424;2023-03-16T09:35:58;101417.28;;;5.60;54.21
8653;BME280;4364;52.426;9.424;2023-03-16T09:38:25;101405.94;;;5.70;53.31
8653;BME280;4364;52.426;9.424;2023-03-16T09:46:13;101405.88;;;5.58;52.22
8653;BME280;4364;52.426;9.424;2023-03-16T09:48:43;101414.72;;;5.65;53.01
8653;BME280;4364;52.426;9.424;2023-03-16T09:54:46;101422.09;;;5.88;52.06
8653;BME280;4364;52.426;9.424;2023-03-16T10:00:03;101418.47;;;6.13;51.42
8653;BME280;4364;52.426;9.424;2023-03-16T10:02:46;101428.66;;;6.11;51.03
8653;BME280;4364;52.426;9.424;2023-03-16T10:05:16;101423.03;;;6.12;50.10
8653;BME280;4364;52.426;9.424;2023-03-16T10:14:14;101418.34;;;6.50;51.08
8653;BME280;4364;52.426;9.424;2023-03-16T10:16:31;101415.91;;;6.60;49.38
8653;BME280;4364;52.426;9.424;2023-03-16T10:19:19;101408.72;;;6.66;50.08
8653;BME280;4364;52.426;9.424;2023-03-16T10:21:49;101413.56;;;6.88;49.84
8653;BME280;4364;52.426;9.424;2023-03-16T10:27:01;101411.56;;;6.83;48.57
8653;BME280;4364;52.426;9.424;2023-03-16T10:29:34;101402.88;;;6.93;49.33
8653;BME280;4364;52.426;9.424;2023-03-16T10:32:12;101397.69;;;7.03;48.18
8653;BME280;4364;52.426;9.424;2023-03-16T10:34:39;101399.81;;;7.13;47.79
8653;BME280;4364;52.426;9.424;2023-03-16T10:37:12;101399.78;;;7.24;47.88
8653;BME280;4364;52.426;9.424;2023-03-16T10:39:39;101391.06;;;7.34;47.33
8653;BME280;4364;52.426;9.424;2023-03-16T10:42:16;101399.84;;;7.53;47.11
8653;BME280;4364;52.426;9.424;2023-03-16T10:44:43;101387.81;;;7.61;46.57
8653;BME280;4364;52.426;9.424;2023-03-16T10:47:21;101396.19;;;7.59;45.82
8653;BME280;4364;52.426;9.424;2023-03-16T10:49:48;101391.34;;;7.61;47.03
8653;BME280;4364;52.426;9.424;2023-03-16T10:52:32;101387.16;;;7.83;45.27
8653;BME280;4364;52.426;9.424;2023-03-16T10:55:06;101386.16;;;7.72;46.49
8653;BME280;4364;52.426;9.424;2023-03-16T10:57:41;101387.06;;;7.77;46.41
8653;BME280;4364;52.426;9.424;2023-03-16T11:00:14;101394.28;;;7.60;46.26
8653;BME280;4364;52.426;9.424;2023-03-16T11:02:41;101386.16;;;7.60;46.73
8653;BME280;4364;52.426;9.424;2023-03-16T11:05:34;101394.66;;;7.64;44.85
8653;BME280;4364;52.426;9.424;2023-03-16T11:10:40;101389.91;;;7.71;45.44
8653;BME280;4364;52.426;9.424;2023-03-16T11:13:21;101381.91;;;7.76;46.04
8653;BME280;4364;52.426;9.424;2023-03-16T11:15:52;101384.78;;;7.86;46.09
8653;BME280;4364;52.426;9.424;2023-03-16T11:18:30;101378.91;;;7.89;46.06
8653;BME280;4364;52.426;9.424;2023-03-16T11:21:05;101389.84;;;8.11;45.46
8653;BME280;4364;52.426;9.424;2023-03-16T11:23:54;101375.94;;;8.37;43.86
8653;BME280;4364;52.426;9.424;2023-03-16T11:26:33;101379.25;;;8.39;43.39
8653;BME280;4364;52.426;9.424;2023-03-16T11:29:05;101380.00;;;8.68;43.36
8653;BME280;4364;52.426;9.424;2023-03-16T11:31:42;101362.06;;;8.67;43.09
8653;BME280;4364;52.426;9.424;2023-03-16T11:34:16;101349.03;;;8.64;41.96
8653;BME280;4364;52.426;9.424;2023-03-16T11:36:52;101355.41;;;8.75;41.77
8653;BME280;4364;52.426;9.424;2023-03-16T11:39:28;101353.53;;;8.75;41.85
8653;BME280;4364;52.426;9.424;2023-03-16T11:42:34;101348.16;;;8.80;40.25
8653;BME280;4364;52.426;9.424;2023-03-16T11:45:33;101348.75;;;8.82;38.83
8653;BME280;4364;52.426;9.424;2023-03-16T11:56:38;101330.53;;;8.78;40.14
8653;BME280;4364;52.426;9.424;2023-03-16T11:59:25;101333.72;;;8.75;38.73
8653;BME280;4364;52.426;9.424;2023-03-16T12:07:20;101322.53;;;9.10;37.74
8653;BME280;4364;52.426;9.424;2023-03-16T12:10:06;101317.69;;;9.12;38.50
8653;BME280;4364;52.426;9.424;2023-03-16T12:18:00;101293.91;;;9.19;37.65
8653;BME280;4364;52.426;9.424;2023-03-16T12:20:35;101293.59;;;9.16;37.48
8653;BME280;4364;52.426;9.424;2023-03-16T12:23:08;101293.59;;;9.16;38.84
8653;BME280;4364;52.426;9.424;2023-03-16T12:25:39;101289.59;;;9.01;38.66
8653;BME280;4364;52.426;9.424;2023-03-16T12:28:24;101293.13;;;9.02;38.53
8653;BME280;4364;52.426;9.424;2023-03-16T12:38:55;101278.78;;;9.28;38.83
8653;BME280;4364;52.426;9.424;2023-03-16T12:41:42;101278.44;;;9.20;39.49
8653;BME280;4364;52.426;9.424;2023-03-16T12:47:16;101258.38;;;9.21;38.47
8653;BME280;4364;52.426;9.424;2023-03-16T12:49:45;101249.47;;;9.25;39.01
8653;BME280;4364;52.426;9.424;2023-03-16T12:52:12;101254.06;;;9.25;40.17
8653;BME280;4364;52.426;9.424;2023-03-16T12:54:50;101254.50;;;9.17;39.66
8653;BME280;4364;52.426;9.424;2023-03-16T12:57:23;101249.34;;;9.15;39.97
8653;BME280;4364;52.426;9.424;2023-03-16T12:59:55;101236.53;;;9.33;39.62
8653;BME280;4364;52.426;9.424;2023-03-16T13:02:27;101237.84;;;9.30;39.04
8653;BME280;4364;52.426;9.424;2023-03-16T13:05:00;101233.13;;;9.20;39.57
8653;BME280;4364;52.426;9.424;2023-03-16T13:07:29;101226.63;;;9.21;38.86
8653;BME280;4364;52.426;9.424;2023-03-16T13:10:00;101224.81;;;9.05;40.02
8653;BME280;4364;52.426;9.424;2023-03-16T13:12:35;101213.50;;;9.13;40.04
8653;BME280;4364;52.426;9.424;2023-03-16T13:25:57;101193.78;;;9.50;38.59
8653;BME280;4364;52.426;9.424;2023-03-16T13:28:37;101202.91;;;9.66;38.61
8653;BME280;4364;52.426;9.424;2023-03-16T13:31:24;101201.97;;;9.82;38.95
8653;BME280;4364;52.426;9.424;2023-03-16T13:33:54;101214.22;;;9.90;37.52
8653;BME280;4364;52.426;9.424;2023-03-16T13:36:23;101204.28;;;10.01;37.62
8653;BME280;4364;52.426;9.424;2023-03-16T13:38:55;101203.50;;;10.06;38.38
8653;BME280;4364;52.426;9.424;2023-03-16T13:41:23;101195.22;;;9.90;38.92
8653;BME280;4364;52.426;9.424;2023-03-16T13:43:50;101190.16;;;10.04;39.94
8653;BME280;4364;52.426;9.424;2023-03-16T13:46:19;101192.13;;;9.76;40.97
8653;BME280;4364;52.426;9.424;2023-03-16T13:48:48;101192.16;;;9.81;41.63
8653;BME280;4364;52.426;9.424;2023-03-16T13:51:18;101185.66;;;9.50;41.98
8653;BME280;4364;52.426;9.424;2023-03-16T13:53:46;101168.09;;;9.58;42.43
8653;BME280;4364;52.426;9.424;2023-03-16T13:56:16;101175.03;;;9.49;41.99
8653;BME280;4364;52.426;9.424;2023-03-16T13:58:46;101165.84;;;9.50;43.02
8653;BME280;4364;52.426;9.424;2023-03-16T14:01:25;101167.38;;;9.40;42.15
8653;BME280;4364;52.426;9.424;2023-03-16T14:03:55;101163.16;;;9.22;42.75
8653;BME280;4364;52.426;9.424;2023-03-16T14:06:28;101169.59;;;9.16;42.24
8653;BME280;4364;52.426;9.424;2023-03-16T14:08:58;101155.16;;;9.11;42.54
8653;BME280;4364;52.426;9.424;2023-03-16T14:11:28;101155.94;;;9.06;42.42
8653;BME280;4364;52.426;9.424;2023-03-16T14:13:56;101156.31;;;8.93;42.70
8653;BME280;4364;52.426;9.424;2023-03-16T14:16:27;101146.38;;;8.76;43.03
8653;BME280;4364;52.426;9.424;2023-03-16T14:19:21;101145.13;;;8.84;43.45
8653;BME280;4364;52.426;9.424;2023-03-16T14:21:49;101130.16;;;8.81;43.18
8653;BME280;4364;52.426;9.424;2023-03-16T14:24:32;101129.72;;;8.89;42.14
8653;BME280;4364;52.426;9.424;2023-03-16T14:27:19;101122.84;;;8.82;42.62
8653;BME280;4364;52.426;9.424;2023-03-16T14:29:52;101114.50;;;8.88;42.16
8653;BME280;4364;52.426;9.424;2023-03-16T14:32:31;101118.25;;;8.82;43.27
8653;BME280;4364;52.426;9.424;2023-03-16T14:35:02;101117.56;;;8.92;43.10
8653;BME280;4364;52.426;9.424;2023-03-16T14:37:34;101096.75;;;8.76;43.39
8653;BME280;4364;52.426;9.424;2023-03-16T14:40:07;101090.03;;;8.83;43.91
8653;BME280;4364;52.426;9.424;2023-03-16T14:42:34;101100.44;;;8.92;44.01
8653;BME280;4364;52.426;9.424;2023-03-16T14:45:02;101096.97;;;8.96;43.72
8653;BME280;4364;52.426;9.424;2023-03-16T14:47:38;101094.50;;;8.95;42.95